Time;durP1;ratioP1;P1;durP2;ratioP2;P2;SDS_P1;SDS_P2;PMS_P1;PMS_P2;Temp;Humidity;BMP_temperature;BMP_pressure;BME280_temperature;BME280_humidity;BME280_pressure;Samples;Min_cycle;Max_cycle;Signal;HPM_P1;HPM_P2
2021/04/07 00:01:03;;;;;;;16.70;3.40;;;1.60;85.20;;;;;;5017355;28;20177;-82
2021/04/07 00:03:36;;;;;;;11.13;4.27;;;1.50;85.30;;;;;;5035187;28;20173;-82
2021/04/07 00:06:09;;;;;;;18.03;2.70;;;1.60;85.10;;;;;;5035033;28;20197;-83
2021/04/07 00:08:47;;;;;;;13.77;2.73;;;1.60;84.50;;;;;;5017241;28;20264;-83
2021/04/07 00:11:18;;;;;;;17.03;3.17;;;1.50;84.50;;;;;;5035273;28;20579;-82
2021/04/07 00:13:52;;;;;;;16.07;2.93;;;1.50;84.40;;;;;;5017989;28;20577;-82
2021/04/07 00:16:18;;;;;;;16.20;2.90;;;1.50;84.50;;;;;;5034891;28;20186;-82
2021/04/07 00:18:50;;;;;;;10.70;3.10;;;1.50;84.60;;;;;;5017241;28;20187;-82
2021/04/07 00:21:24;;;;;;;10.17;2.63;;;1.40;84.70;;;;;;5035306;28;20165;-82
2021/04/07 00:24:00;;;;;;;13.17;3.10;;;1.40;85.00;;;;;;5016949;28;20207;-82
2021/04/07 00:26:34;;;;;;;15.17;3.00;;;1.40;85.20;;;;;;5034929;28;20246;-82
2021/04/07 00:29:00;;;;;;;25.90;4.17;;;1.40;85.30;;;;;;5034749;28;20592;-82
2021/04/07 00:31:31;;;;;;;28.37;3.43;;;1.40;85.30;;;;;;5016950;28;20287;-82
2021/04/07 00:34:10;;;;;;;18.87;3.33;;;1.40;85.30;;;;;;5034573;28;20242;-82
2021/04/07 00:36:45;;;;;;;15.10;3.07;;;1.40;85.20;;;;;;5034585;28;20190;-82
2021/04/07 00:39:14;;;;;;;16.47;3.63;;;1.40;85.50;;;;;;5016695;28;20258;-82
2021/04/07 00:41:46;;;;;;;16.63;3.30;;;1.40;85.80;;;;;;5035068;28;20708;-82
2021/04/07 00:44:11;;;;;;;24.00;3.33;;;1.40;85.70;;;;;;5016596;28;20251;-81
2021/04/07 00:46:38;;;;;;;21.47;3.40;;;1.40;86.00;;;;;;5034286;28;20220;-82
2021/04/07 00:49:10;;;;;;;16.83;4.23;;;1.50;86.00;;;;;;5064468;23;20664;-86
2021/04/07 00:51:44;;;;;;;14.23;2.90;;;1.60;85.80;;;;;;5036142;28;20680;-85
2021/04/07 00:54:10;;;;;;;15.27;2.80;;;1.70;86.00;;;;;;5053313;28;20643;-85
2021/04/07 00:56:47;;;;;;;12.10;2.70;;;1.70;85.70;;;;;;5036162;28;20713;-85
2021/04/07 00:59:24;;;;;;;18.50;2.93;;;1.70;85.50;;;;;;5036002;28;20195;-85
2021/04/07 01:02:00;;;;;;;14.47;3.10;;;1.60;85.40;;;;;;5036838;28;20535;-85
2021/04/07 01:04:38;;;;;;;17.53;3.30;;;1.50;85.40;;;;;;5036521;28;20640;-86
2021/04/07 01:07:11;;;;;;;12.53;3.13;;;1.40;85.50;;;;;;5053761;28;20184;-86
2021/04/07 01:09:41;;;;;;;15.33;2.60;;;1.40;85.60;;;;;;5035668;28;20207;-85
2021/04/07 01:12:14;;;;;;;8.60;2.80;;;1.40;85.60;;;;;;5053665;28;20172;-85
2021/04/07 01:14:45;;;;;;;16.17;3.30;;;1.40;85.60;;;;;;5035732;28;20172;-85
2021/04/07 01:17:19;;;;;;;14.90;3.00;;;1.40;85.50;;;;;;5053583;28;20218;-85
2021/04/07 01:19:46;;;;;;;18.60;3.90;;;1.40;85.60;;;;;;5053762;28;20191;-85
2021/04/07 01:22:21;;;;;;;14.30;3.10;;;1.30;85.70;;;;;;5035675;28;20176;-86
2021/04/07 01:24:53;;;;;;;19.70;3.10;;;1.30;85.80;;;;;;5035725;28;20289;-86
2021/04/07 01:27:24;;;;;;;13.27;2.47;;;1.40;85.60;;;;;;5035469;28;20180;-86
2021/04/07 01:29:57;;;;;;;22.73;3.50;;;1.30;85.90;;;;;;5035451;28;20216;-85
2021/04/07 01:32:29;;;;;;;11.73;3.30;;;1.40;85.80;;;;;;5035402;28;20180;-86
2021/04/07 01:35:02;;;;;;;17.07;2.80;;;1.40;85.80;;;;;;5035445;28;20175;-86
2021/04/07 01:37:34;;;;;;;12.73;3.70;;;1.50;85.60;;;;;;5053424;28;20161;-86
2021/04/07 01:40:02;;;;;;;18.63;3.97;;;1.50;85.70;;;;;;5035251;28;20191;-85
2021/04/07 01:42:34;;;;;;;11.10;2.70;;;1.50;85.70;;;;;;5053200;28;20238;-85
2021/04/07 01:45:13;;;;;;;6.97;2.03;;;1.50;85.70;;;;;;5035247;28;20180;-85
2021/04/07 01:47:44;;;;;;;10.50;2.40;;;1.50;85.60;;;;;;5053212;28;20167;-85
2021/04/07 01:50:18;;;;;;;12.50;3.10;;;1.50;85.60;;;;;;5035015;28;20241;-85
2021/04/07 01:52:44;;;;;;;14.63;3.23;;;1.30;85.90;;;;;;5035206;28;20197;-85
2021/04/07 01:55:17;;;;;;;11.97;2.70;;;1.20;86.10;;;;;;5035256;28;20705;-85
2021/04/07 01:57:43;;;;;;;7.33;2.07;;;1.30;86.10;;;;;;5035069;28;20639;-85
2021/04/07 02:00:18;;;;;;;12.27;2.50;;;1.20;86.50;;;;;;5052999;28;20202;-85
2021/04/07 02:02:51;;;;;;;14.63;3.23;;;1.10;86.90;;;;;;5053274;28;20695;-85
2021/04/07 02:05:22;;;;;;;12.50;2.23;;;1.10;87.10;;;;;;5053995;28;20206;-85
2021/04/07 02:07:54;;;;;;;14.27;3.50;;;1.20;87.50;;;;;;5039198;28;20203;-85
2021/04/07 02:10:31;;;;;;;12.13;3.10;;;1.20;87.20;;;;;;5038976;28;20208;-85
2021/04/07 02:13:03;;;;;;;11.53;2.63;;;1.20;87.20;;;;;;5057253;28;20168;-85
2021/04/07 02:15:47;;;;;;;34.43;3.50;;;1.30;87.00;;;;;;5056062;28;20248;-85
2021/04/07 02:18:20;;;;;;;20.10;3.50;;;1.20;87.30;;;;;;5039613;28;20273;-85
2021/04/07 02:20:52;;;;;;;12.73;2.33;;;1.30;87.20;;;;;;5039537;28;20191;-85
2021/04/07 02:23:21;;;;;;;4.70;1.80;;;1.20;87.10;;;;;;5038869;28;20648;-85
2021/04/07 02:25:54;;;;;;;21.30;2.67;;;1.20;87.20;;;;;;5039042;28;20184;-85
2021/04/07 02:28:20;;;;;;;12.00;3.43;;;1.20;87.30;;;;;;5056592;28;20172;-85
2021/04/07 02:30:46;;;;;;;8.07;2.67;;;1.20;87.30;;;;;;5056681;28;20238;-85
2021/04/07 02:33:19;;;;;;;14.27;3.27;;;1.20;87.20;;;;;;5056653;28;20545;-85
2021/04/07 02:35:51;;;;;;;13.63;2.30;;;1.20;87.10;;;;;;5038694;28;20217;-86
2021/04/07 02:38:26;;;;;;;12.90;3.30;;;1.10;87.20;;;;;;5056835;28;20174;-85
2021/04/07 02:40:53;;;;;;;19.90;4.00;;;1.10;87.10;;;;;;5038637;28;20682;-85
2021/04/07 02:43:27;;;;;;;15.07;3.53;;;1.20;87.00;;;;;;5056902;28;20647;-85
2021/04/07 02:45:54;;;;;;;19.73;3.63;;;1.10;87.10;;;;;;5039060;28;20184;-85
2021/04/07 02:48:28;;;;;;;12.83;3.77;;;1.10;87.00;;;;;;5056270;28;20187;-85
2021/04/07 02:51:01;;;;;;;17.83;2.93;;;1.10;87.10;;;;;;5038357;28;20337;-85
2021/04/07 02:53:34;;;;;;;16.90;3.47;;;1.20;86.90;;;;;;5056620;28;20190;-85
2021/04/07 02:56:10;;;;;;;16.20;2.90;;;1.10;87.20;;;;;;5038397;28;20644;-85
2021/04/07 02:58:41;;;;;;;18.40;3.67;;;1.10;87.30;;;;;;5038197;28;20180;-85
2021/04/07 03:01:14;;;;;;;16.43;3.33;;;1.10;87.40;;;;;;5056134;28;20241;-85
2021/04/07 03:03:48;;;;;;;7.70;2.20;;;1.00;87.60;;;;;;5038205;28;20186;-85
2021/04/07 03:06:26;;;;;;;21.00;3.33;;;1.00;87.60;;;;;;5038151;28;20223;-85
2021/04/07 03:08:57;;;;;;;17.40;3.93;;;1.00;87.80;;;;;;5038022;28;20208;-85
2021/04/07 03:11:27;;;;;;;22.23;3.60;;;1.00;87.50;;;;;;5037988;28;20211;-85
2021/04/07 03:13:54;;;;;;;9.07;2.73;;;1.00;87.60;;;;;;5055895;28;20209;-85
2021/04/07 03:16:31;;;;;;;15.07;2.30;;;1.00;87.50;;;;;;5055654;28;20182;-85
2021/04/07 03:19:01;;;;;;;10.80;2.97;;;1.00;87.50;;;;;;5037597;28;20195;-85
2021/04/07 03:21:34;;;;;;;12.87;3.10;;;0.90;87.80;;;;;;5037898;28;20184;-85
2021/04/07 03:24:03;;;;;;;19.23;3.63;;;0.90;87.60;;;;;;5037862;28;20206;-85
2021/04/07 03:26:37;;;;;;;18.47;3.67;;;0.80;87.70;;;;;;5055610;28;20176;-85
2021/04/07 03:29:10;;;;;;;13.80;3.77;;;0.80;87.70;;;;;;5055681;28;20244;-85
2021/04/07 03:31:36;;;;;;;11.03;2.93;;;0.80;87.60;;;;;;5037556;28;20199;-85
2021/04/07 03:34:10;;;;;;;7.90;2.90;;;0.80;87.50;;;;;;5055552;28;20226;-85
2021/04/07 03:36:38;;;;;;;22.53;3.30;;;0.80;87.50;;;;;;5037590;28;20176;-85
2021/04/07 03:39:13;;;;;;;10.23;2.83;;;0.80;87.80;;;;;;5055372;28;20700;-85
2021/04/07 03:41:43;;;;;;;7.70;2.00;;;0.70;87.80;;;;;;5055350;28;20182;-85
2021/04/07 03:44:11;;;;;;;13.33;3.23;;;0.70;88.20;;;;;;5055468;28;20172;-85
2021/04/07 03:46:44;;;;;;;12.90;2.73;;;0.70;88.40;;;;;;5055280;28;20233;-85
2021/04/07 03:49:20;;;;;;;13.03;3.07;;;0.60;88.50;;;;;;5037352;28;20239;-85
2021/04/07 03:51:51;;;;;;;18.67;3.33;;;0.60;88.50;;;;;;5037201;28;20619;-85
2021/04/07 03:54:23;;;;;;;21.87;3.20;;;0.60;88.60;;;;;;5055226;28;20178;-85
2021/04/07 03:57:01;;;;;;;25.37;4.63;;;0.60;88.70;;;;;;5037209;28;20265;-85
2021/04/07 03:59:40;;;;;;;17.97;3.80;;;0.60;88.70;;;;;;5037031;28;20192;-85
2021/04/07 04:02:13;;;;;;;17.97;3.37;;;0.50;88.80;;;;;;5037869;28;20261;-85
2021/04/07 04:04:44;;;;;;;12.73;3.60;;;0.50;88.60;;;;;;5055374;28;20168;-85
2021/04/07 04:07:16;;;;;;;16.83;3.50;;;0.50;88.60;;;;;;5037068;28;20686;-85
2021/04/07 04:09:52;;;;;;;10.90;2.97;;;0.50;88.50;;;;;;5054715;28;20710;-85
2021/04/07 04:12:24;;;;;;;17.37;3.93;;;0.50;88.40;;;;;;5037011;28;20179;-85
2021/04/07 04:15:01;;;;;;;13.77;3.10;;;0.50;88.20;;;;;;5054695;28;20628;-85
2021/04/07 04:17:37;;;;;;;14.20;3.23;;;0.50;88.10;;;;;;5036780;28;20662;-85
2021/04/07 04:20:05;;;;;;;15.17;3.53;;;0.40;88.40;;;;;;5054629;28;20200;-85
2021/04/07 04:22:41;;;;;;;16.60;3.70;;;0.30;88.60;;;;;;5054664;28;20719;-85
2021/04/07 04:25:09;;;;;;;18.70;3.43;;;0.40;88.80;;;;;;5036978;28;20182;-85
2021/04/07 04:27:48;;;;;;;11.03;3.17;;;0.30;88.90;;;;;;5036672;28;20234;-84
2021/04/07 04:30:22;;;;;;;14.73;4.77;;;0.30;89.00;;;;;;5035389;28;20245;-85
2021/04/07 04:32:54;;;;;;;5.80;2.57;;;0.30;89.10;;;;;;5054387;28;20640;-85
2021/04/07 04:35:26;;;;;;;14.43;3.23;;;0.30;89.10;;;;;;5036496;28;20188;-85
2021/04/07 04:38:00;;;;;;;12.47;3.07;;;0.30;89.10;;;;;;5054267;28;20175;-85
2021/04/07 04:40:36;;;;;;;13.43;3.60;;;0.30;89.20;;;;;;5036340;28;20289;-85
2021/04/07 04:43:08;;;;;;;18.50;3.53;;;0.20;89.30;;;;;;5054489;28;20585;-85
2021/04/07 04:45:43;;;;;;;22.57;3.87;;;0.30;89.40;;;;;;5054412;28;20241;-85
2021/04/07 04:48:14;;;;;;;13.73;3.60;;;0.30;89.50;;;;;;5054428;28;20251;-85
2021/04/07 04:50:51;;;;;;;17.67;3.97;;;0.20;89.70;;;;;;5053840;28;20244;-85
2021/04/07 04:53:24;;;;;;;21.67;4.70;;;0.30;89.80;;;;;;5036692;28;20177;-86
2021/04/07 04:56:00;;;;;;;12.93;3.20;;;0.30;89.80;;;;;;5053984;28;20606;-85
2021/04/07 04:58:31;;;;;;;12.67;2.77;;;0.30;89.90;;;;;;5036057;28;20209;-85
2021/04/07 05:01:09;;;;;;;12.27;2.50;;;0.30;90.00;;;;;;5036781;28;20180;-85
2021/04/07 05:03:40;;;;;;;17.60;4.13;;;0.30;90.20;;;;;;5053834;28;20183;-85
2021/04/07 05:06:06;;;;;;;20.20;4.17;;;0.40;90.10;;;;;;5053842;28;20273;-86
2021/04/07 05:08:38;;;;;;;12.10;3.53;;;0.40;90.00;;;;;;5035744;28;20265;-85
2021/04/07 05:11:12;;;;;;;22.37;4.37;;;0.50;90.20;;;;;;5035660;28;20211;-85
2021/04/07 05:13:51;;;;;;;16.40;4.07;;;0.50;90.20;;;;;;5035751;28;20264;-85
2021/04/07 05:16:27;;;;;;;27.40;3.77;;;0.50;90.10;;;;;;5036289;28;20198;-85
2021/04/07 05:18:53;;;;;;;12.43;3.77;;;0.50;90.10;;;;;;5053506;28;20199;-85
2021/04/07 05:21:19;;;;;;;14.03;3.70;;;0.50;90.00;;;;;;5053580;28;20239;-85
2021/04/07 05:23:53;;;;;;;12.70;4.60;;;0.50;90.10;;;;;;5053488;28;20187;-85
2021/04/07 05:26:31;;;;;;;15.13;4.17;;;0.50;90.20;;;;;;5053773;28;20164;-85
2021/04/07 05:29:04;;;;;;;12.37;3.87;;;0.50;90.20;;;;;;5035430;28;20196;-84
2021/04/07 05:31:40;;;;;;;15.23;4.30;;;0.60;90.30;;;;;;5053292;28;20206;-85
2021/04/07 05:34:06;;;;;;;18.13;4.10;;;0.60;90.30;;;;;;5053612;28;20562;-85
2021/04/07 05:36:43;;;;;;;12.80;4.37;;;0.50;90.30;;;;;;5035576;28;20184;-85
2021/04/07 05:39:09;;;;;;;11.47;3.20;;;0.50;90.40;;;;;;5036321;28;20199;-85
2021/04/07 05:41:38;;;;;;;8.80;3.03;;;0.60;90.30;;;;;;5053182;28;20182;-85
2021/04/07 05:44:08;;;;;;;11.03;3.60;;;0.50;90.40;;;;;;5035302;28;20183;-84
2021/04/07 05:46:40;;;;;;;13.63;4.73;;;0.60;90.50;;;;;;5035355;28;20326;-85
2021/04/07 05:49:11;;;;;;;13.40;4.33;;;0.60;90.50;;;;;;5053288;28;20211;-85
2021/04/07 05:51:37;;;;;;;10.00;3.17;;;0.60;90.50;;;;;;5053104;28;20191;-84
2021/04/07 05:54:12;;;;;;;14.77;3.97;;;0.60;90.40;;;;;;5035505;28;20198;-84
2021/04/07 05:56:44;;;;;;;10.67;3.83;;;0.60;90.40;;;;;;5053422;28;20166;-84
2021/04/07 05:59:14;;;;;;;17.27;3.97;;;0.70;90.60;;;;;;5053466;28;20604;-84
2021/04/07 06:01:49;;;;;;;5.53;2.77;;;0.60;90.60;;;;;;5053365;28;20659;-84
2021/04/07 06:04:22;;;;;;;8.80;3.73;;;0.60;90.70;;;;;;5035830;28;20182;-84
2021/04/07 06:07:00;;;;;;;10.60;3.93;;;0.60;90.70;;;;;;5035436;28;20187;-84
2021/04/07 06:09:34;;;;;;;10.90;3.80;;;0.70;90.60;;;;;;5053244;28;20198;-84
2021/04/07 06:12:12;;;;;;;9.80;3.53;;;0.70;90.40;;;;;;5035274;28;20235;-84
2021/04/07 06:14:44;;;;;;;16.27;4.57;;;0.70;90.60;;;;;;5035221;28;20204;-84
2021/04/07 06:17:17;;;;;;;14.90;4.30;;;0.70;90.50;;;;;;5053586;28;20159;-83
2021/04/07 06:19:43;;;;;;;12.23;3.57;;;0.80;90.60;;;;;;5035231;28;20565;-83
2021/04/07 06:22:20;;;;;;;13.93;3.90;;;0.80;90.30;;;;;;5036787;28;20176;-84
2021/04/07 06:24:52;;;;;;;21.17;5.63;;;0.80;90.30;;;;;;5037326;28;20254;-84
2021/04/07 06:27:19;;;;;;;16.80;4.07;;;0.80;90.40;;;;;;5055379;28;20599;-84
2021/04/07 06:29:52;;;;;;;14.30;3.50;;;0.80;90.40;;;;;;5054944;28;20191;-84
2021/04/07 06:32:25;;;;;;;14.10;3.43;;;0.80;90.30;;;;;;5036849;28;20175;-84
2021/04/07 06:34:58;;;;;;;10.60;3.07;;;0.90;90.20;;;;;;5036775;28;20257;-84
2021/04/07 06:37:29;;;;;;;5.80;3.20;;;0.90;90.20;;;;;;5037272;28;20575;-84
2021/04/07 06:40:03;;;;;;;12.47;2.83;;;0.80;90.20;;;;;;5036852;28;20193;-84
2021/04/07 06:42:38;;;;;;;10.10;3.23;;;0.70;90.20;;;;;;5037134;28;20183;-84
2021/04/07 06:45:05;;;;;;;11.93;3.27;;;0.70;90.50;;;;;;5054990;28;20160;-84
2021/04/07 06:47:40;;;;;;;8.77;2.70;;;0.70;90.60;;;;;;5035307;28;20202;-84
2021/04/07 06:50:20;;;;;;;7.43;2.80;;;0.80;90.50;;;;;;5141008;22;20231;-82
2021/04/07 06:53:04;;;;;;;14.73;3.63;;;0.80;90.60;;;;;;5054764;28;20168;-82
2021/04/07 06:55:33;;;;;;;7.73;2.33;;;0.90;90.60;;;;;;5056837;28;20176;-82
2021/04/07 06:58:05;;;;;;;11.73;3.50;;;0.90;90.60;;;;;;5056725;28;20250;-84
2021/04/07 07:00:42;;;;;;;13.60;3.23;;;1.00;90.60;;;;;;5056497;28;20610;-82
2021/04/07 07:03:23;;;;;;;9.77;3.03;;;1.00;90.60;;;;;;5056861;28;20183;-82
2021/04/07 07:05:54;;;;;;;10.90;3.30;;;1.00;90.50;;;;;;5056765;28;20168;-82
2021/04/07 07:08:28;;;;;;;12.57;3.40;;;1.10;90.60;;;;;;5056402;28;20202;-82
2021/04/07 07:11:08;;;;;;;11.23;3.73;;;1.10;90.50;;;;;;5056521;28;20726;-82
2021/04/07 07:13:43;;;;;;;8.10;3.10;;;1.20;90.40;;;;;;5056386;28;20202;-82
2021/04/07 07:16:23;;;;;;;7.40;2.97;;;1.30;90.30;;;;;;5056051;28;20647;-82
2021/04/07 07:18:54;;;;;;;12.53;3.63;;;1.20;90.20;;;;;;5038206;28;20176;-83
2021/04/07 07:21:25;;;;;;;11.27;4.60;;;1.30;90.10;;;;;;5038349;28;20639;-83
2021/04/07 07:23:59;;;;;;;7.13;2.70;;;1.20;90.00;;;;;;5037935;28;20200;-82
2021/04/07 07:26:41;;;;;;;5.23;2.57;;;1.30;90.10;;;;;;5056410;28;20517;-82
2021/04/07 07:29:09;;;;;;;3.67;1.87;;;1.30;90.20;;;;;;5055933;28;20277;-81
2021/04/07 07:31:34;;;;;;;6.20;2.93;;;1.30;90.20;;;;;;5056530;28;20202;-82
2021/04/07 07:34:04;;;;;;;14.73;3.37;;;1.30;90.20;;;;;;5038588;28;20175;-82
2021/04/07 07:36:34;;;;;;;8.27;3.90;;;1.50;90.00;;;;;;5055968;28;20590;-82
2021/04/07 07:39:01;;;;;;;9.87;3.50;;;1.60;89.90;;;;;;5055852;28;20165;-82
2021/04/07 07:41:36;;;;;;;7.67;2.70;;;1.60;89.90;;;;;;5055766;28;20171;-82
2021/04/07 07:44:06;;;;;;;9.10;2.40;;;1.50;90.10;;;;;;5055769;28;20164;-82
2021/04/07 07:46:37;;;;;;;3.93;2.57;;;1.60;90.30;;;;;;5055908;28;20182;-82
2021/04/07 07:49:17;;;;;;;10.10;3.63;;;1.60;90.30;;;;;;5055501;28;20204;-82
2021/04/07 07:51:47;;;;;;;10.27;4.20;;;1.70;90.40;;;;;;5056549;28;20191;-82
2021/04/07 07:54:14;;;;;;;3.73;1.80;;;1.70;90.50;;;;;;5055524;28;20168;-82
2021/04/07 07:56:40;;;;;;;4.07;2.40;;;1.70;90.00;;;;;;5055491;28;20170;-82
2021/04/07 07:59:06;;;;;;;9.50;3.77;;;1.70;90.20;;;;;;5037528;28;20200;-82
2021/04/07 08:01:47;;;;;;;8.43;3.47;;;1.80;90.60;;;;;;5055941;28;20615;-82
2021/04/07 08:04:13;;;;;;;5.27;2.80;;;1.90;90.60;;;;;;5037644;28;20578;-82
2021/04/07 08:06:39;;;;;;;5.77;3.53;;;1.90;90.50;;;;;;5037431;28;20202;-82
2021/04/07 08:09:10;;;;;;;12.30;2.70;;;1.90;90.70;;;;;;5055119;28;20192;-83
2021/04/07 08:11:46;;;;;;;12.37;4.57;;;1.90;90.50;;;;;;5055374;28;20192;-83
2021/04/07 08:14:28;;;;;;;6.13;2.97;;;2.00;90.90;;;;;;5037171;28;20550;-82
2021/04/07 08:17:02;;;;;;;6.17;3.60;;;2.10;90.80;;;;;;5037347;28;20177;-82
2021/04/07 08:19:34;;;;;;;11.57;4.30;;;2.20;90.70;;;;;;5036979;28;20222;-82
2021/04/07 08:22:04;;;;;;;7.07;3.50;;;2.30;90.90;;;;;;5055216;28;20181;-82
2021/04/07 08:24:37;;;;;;;8.23;4.07;;;2.30;90.80;;;;;;5055080;28;20172;-82
2021/04/07 08:27:14;;;;;;;8.50;3.70;;;2.30;90.70;;;;;;5054950;28;20172;-82
2021/04/07 08:29:41;;;;;;;7.43;4.13;;;2.40;90.50;;;;;;5054920;28;20188;-82
2021/04/07 08:32:20;;;;;;;8.43;4.07;;;2.30;90.50;;;;;;5055827;28;20256;-81
2021/04/07 08:34:54;;;;;;;12.10;4.50;;;2.30;90.40;;;;;;5037743;28;20174;-82
2021/04/07 08:37:34;;;;;;;9.77;3.90;;;2.50;90.50;;;;;;5055109;28;20153;-82
2021/04/07 08:40:22;;;;;;;7.30;4.00;;;2.40;90.30;;;;;;5036995;28;20699;-82
2021/04/07 08:42:57;;;;;;;4.47;3.37;;;2.50;90.60;;;;;;5054572;28;20178;-82
2021/04/07 08:45:47;;;;;;;7.10;4.37;;;2.50;90.60;;;;;;5054418;28;20219;-82
2021/04/07 08:48:24;;;;;;;4.50;2.93;;;2.70;90.60;;;;;;5054742;28;20244;-82
2021/04/07 08:51:09;;;;;;;7.33;3.53;;;2.70;90.30;;;;;;5054163;28;20580;-82
2021/04/07 08:53:47;;;;;;;7.17;3.87;;;2.80;90.40;;;;;;5054564;28;20173;-82
2021/04/07 08:56:27;;;;;;;5.83;3.30;;;2.80;90.30;;;;;;5036942;28;20174;-82
2021/04/07 08:59:03;;;;;;;6.50;2.97;;;2.80;89.70;;;;;;5036466;28;20168;-82
2021/04/07 09:01:38;;;;;;;6.43;3.60;;;3.00;89.80;;;;;;5054282;28;20205;-82
2021/04/07 09:04:09;;;;;;;5.63;3.47;;;3.00;89.80;;;;;;5054412;28;20235;-83
2021/04/07 09:06:57;;;;;;;5.77;4.00;;;3.10;90.20;;;;;;5054173;28;20726;-82
2021/04/07 09:09:40;;;;;;;3.37;3.07;;;3.10;89.60;;;;;;5036362;28;20199;-82
2021/04/07 09:12:13;;;;;;;4.27;2.90;;;3.20;90.40;;;;;;5054253;28;20204;-82
2021/04/07 09:14:54;;;;;;;7.20;3.87;;;3.10;89.60;;;;;;5035614;28;20206;-83
2021/04/07 11:46:28;;;;;;;2.90;1.13;;;5.20;89.00;;;;;;5135718;27;20165;-82
2021/04/07 11:48:54;;;;;;;4.57;1.43;;;5.20;89.30;;;;;;5137463;27;20208;-83
2021/04/07 11:51:19;;;;;;;3.80;2.07;;;5.40;89.90;;;;;;5139429;27;20233;-82
2021/04/07 11:53:49;;;;;;;4.30;1.60;;;5.60;90.10;;;;;;5136993;27;20193;-82
2021/04/07 11:56:17;;;;;;;3.73;1.80;;;5.90;90.30;;;;;;5219498;22;20815;-83
2021/04/07 11:58:43;;;;;;;9.37;2.10;;;6.00;89.90;;;;;;5070226;28;20214;-83
2021/04/07 12:01:09;;;;;;;18.17;2.43;;;6.30;89.50;;;;;;5070204;28;20176;-84
2021/04/07 12:03:36;;;;;;;16.10;3.13;;;6.30;88.80;;;;;;5070005;28;20210;-83
2021/04/07 12:06:02;;;;;;;13.87;3.00;;;6.40;88.60;;;;;;5069887;28;20691;-83
2021/04/07 12:08:27;;;;;;;19.10;3.30;;;6.40;86.60;;;;;;5052010;28;20214;-83
2021/04/07 12:10:53;;;;;;;16.47;3.60;;;6.30;86.80;;;;;;5069983;28;20164;-83
2021/04/07 12:13:19;;;;;;;21.33;4.13;;;6.50;87.10;;;;;;5069707;28;20196;-83
2021/04/07 12:15:45;;;;;;;28.27;3.70;;;7.10;87.30;;;;;;5051909;28;20181;-83
2021/04/07 12:18:10;;;;;;;18.07;4.00;;;7.10;84.70;;;;;;5051939;28;20169;-83
2021/04/07 12:20:36;;;;;;;6.60;2.00;;;6.70;82.60;;;;;;5069678;28;20257;-84
2021/04/07 12:23:02;;;;;;;12.67;3.03;;;6.30;82.60;;;;;;5069636;28;20248;-83
2021/04/07 12:25:28;;;;;;;15.43;4.10;;;6.10;83.10;;;;;;5069842;28;20236;-83
2021/04/07 12:27:55;;;;;;;11.87;2.33;;;6.10;83.80;;;;;;5069609;28;20258;-83
2021/04/07 12:30:21;;;;;;;20.07;5.00;;;6.70;85.30;;;;;;5069447;28;20176;-83
2021/04/07 12:32:47;;;;;;;13.70;3.30;;;7.00;84.40;;;;;;5051927;28;20255;-83
2021/04/07 12:35:14;;;;;;;17.20;3.80;;;7.10;83.40;;;;;;5051543;28;20589;-83
2021/04/07 12:37:43;;;;;;;20.77;4.10;;;7.20;83.40;;;;;;5069214;28;20190;-83
2021/04/07 12:40:10;;;;;;;19.80;4.97;;;7.60;82.30;;;;;;5069312;28;20257;-83
2021/04/07 12:42:36;;;;;;;20.73;4.20;;;7.60;81.00;;;;;;5050907;28;20179;-83
2021/04/07 12:45:04;;;;;;;19.90;3.37;;;7.50;79.60;;;;;;5055662;28;20712;-83
2021/04/07 12:47:29;;;;;;;27.33;4.73;;;6.90;80.10;;;;;;5055990;28;20239;-83
2021/04/07 12:49:55;;;;;;;25.93;3.77;;;6.90;80.30;;;;;;5056110;28;20261;-83
2021/04/07 12:52:21;;;;;;;17.07;4.23;;;6.90;80.10;;;;;;5056370;28;20201;-82
2021/04/07 12:54:46;;;;;;;20.83;4.73;;;7.20;79.80;;;;;;5037934;28;20177;-82
2021/04/07 12:57:12;;;;;;;9.60;2.67;;;7.10;81.00;;;;;;5037950;28;20206;-82
2021/04/07 12:59:37;;;;;;;16.70;4.27;;;6.90;81.40;;;;;;5055723;28;20192;-82
2021/04/07 13:02:03;;;;;;;20.30;3.83;;;6.70;81.10;;;;;;5055712;28;20638;-82
2021/04/07 13:04:29;;;;;;;16.97;3.03;;;6.70;80.90;;;;;;5037807;28;20240;-82
2021/04/07 13:06:54;;;;;;;14.17;3.13;;;6.50;78.50;;;;;;5055525;28;20193;-81
2021/04/07 13:09:20;;;;;;;17.00;3.13;;;6.50;77.00;;;;;;5055569;28;20165;-81
2021/04/07 13:11:47;;;;;;;10.80;2.47;;;7.00;78.30;;;;;;5055447;28;20225;-82
2021/04/07 13:14:12;;;;;;;12.90;2.63;;;7.40;77.00;;;;;;5055646;28;20194;-82
2021/04/07 13:16:38;;;;;;;18.40;3.27;;;7.80;76.70;;;;;;5037338;28;20542;-82
2021/04/07 13:19:07;;;;;;;14.23;3.73;;;7.90;76.10;;;;;;5037562;28;20211;-82
2021/04/07 13:21:35;;;;;;;12.37;2.77;;;8.20;77.30;;;;;;5037561;28;20269;-82
2021/04/07 13:24:00;;;;;;;13.77;3.03;;;7.60;74.70;;;;;;5055580;28;20171;-82
2021/04/07 13:26:26;;;;;;;11.93;3.00;;;7.60;76.70;;;;;;5055292;28;20694;-81
2021/04/07 13:28:52;;;;;;;13.07;3.00;;;7.60;76.00;;;;;;5055185;28;20259;-81
2021/04/07 13:31:18;;;;;;;12.70;2.53;;;7.80;76.20;;;;;;5037242;28;20563;-81
2021/04/07 13:33:50;;;;;;;15.93;3.37;;;8.00;74.10;;;;;;5037148;28;20172;-82
2021/04/07 13:36:19;;;;;;;10.40;2.93;;;8.10;73.70;;;;;;5055049;28;20187;-82
2021/04/07 13:44:00;;;;;;;12.13;2.93;;;7.30;76.20;;;;;;5055323;28;20155;-81
2021/04/07 13:46:25;;;;;;;18.90;4.43;;;7.60;75.90;;;;;;5054937;28;20190;-81
2021/04/07 13:48:52;;;;;;;16.37;3.20;;;7.40;77.00;;;;;;5055282;28;20517;-82
2021/04/07 13:51:18;;;;;;;11.77;2.57;;;7.50;76.90;;;;;;5054947;28;20168;-82
2021/04/07 13:53:47;;;;;;;13.03;3.13;;;7.90;76.10;;;;;;5037168;28;20175;-82
2021/04/07 13:56:18;;;;;;;13.67;4.23;;;8.20;76.00;;;;;;5053810;28;20227;-81
2021/04/07 13:58:45;;;;;;;12.37;2.43;;;7.50;78.90;;;;;;5054712;28;20171;-81
2021/04/07 14:01:12;;;;;;;8.47;2.33;;;7.40;80.50;;;;;;5036669;28;20257;-81
2021/04/07 14:03:38;;;;;;;13.57;3.93;;;7.10;79.90;;;;;;5037000;28;20225;-82
2021/04/07 14:06:03;;;;;;;16.77;4.20;;;7.00;81.00;;;;;;5036583;28;20196;-82
2021/04/07 14:08:30;;;;;;;13.93;3.43;;;7.30;81.60;;;;;;5036753;28;20191;-82
2021/04/07 14:10:56;;;;;;;13.80;3.07;;;7.30;80.60;;;;;;5055020;28;20176;-83
2021/04/07 14:13:23;;;;;;;15.87;2.87;;;7.10;79.40;;;;;;5036922;28;20260;-82
2021/04/07 14:15:49;;;;;;;9.90;2.03;;;6.80;79.60;;;;;;5036284;28;20240;-81
2021/04/07 14:18:14;;;;;;;8.07;2.17;;;6.80;79.10;;;;;;5054379;28;20684;-81
2021/04/07 14:20:40;;;;;;;9.83;1.87;;;7.00;78.00;;;;;;5054469;28;20171;-82
2021/04/07 14:23:06;;;;;;;17.10;3.33;;;7.30;77.50;;;;;;5054421;28;20178;-81
2021/04/07 14:25:34;;;;;;;15.33;4.40;;;7.50;77.40;;;;;;5054359;28;20199;-81
2021/04/07 14:28:03;;;;;;;10.47;2.93;;;7.30;76.70;;;;;;5054217;28;20224;-81
2021/04/07 14:30:45;;;;;;;16.27;2.93;;;6.80;77.00;;;;;;5054079;28;20176;-81
2021/04/07 14:33:16;;;;;;;13.70;2.90;;;6.70;77.80;;;;;;5053892;28;20729;-81
2021/04/07 14:35:44;;;;;;;9.60;2.10;;;7.00;77.30;;;;;;5036021;28;20265;-82
2021/04/07 14:38:10;;;;;;;11.27;1.93;;;6.80;76.80;;;;;;5053859;28;20175;-81
2021/04/07 14:40:37;;;;;;;8.20;2.03;;;6.80;77.30;;;;;;5053821;28;20398;-81
2021/04/07 14:43:02;;;;;;;7.40;2.00;;;6.90;76.10;;;;;;5036040;28;20183;-81
2021/04/07 14:45:28;;;;;;;13.27;2.33;;;6.70;76.90;;;;;;5053614;28;20244;-81
2021/04/07 14:47:55;;;;;;;17.70;3.00;;;6.50;77.00;;;;;;5053549;28;20276;-81
2021/04/07 14:50:33;;;;;;;9.37;2.93;;;6.50;77.90;;;;;;5053807;28;20173;-81
2021/04/07 14:52:58;;;;;;;13.77;3.20;;;6.30;79.00;;;;;;5035626;28;20195;-81
2021/04/07 14:55:24;;;;;;;9.03;2.10;;;6.30;80.10;;;;;;5053551;28;20174;-81
2021/04/07 14:57:50;;;;;;;7.33;2.00;;;6.20;79.50;;;;;;5053360;28;20205;-81
2021/04/07 15:00:18;;;;;;;8.07;2.00;;;6.30;79.70;;;;;;5053522;28;20180;-80
2021/04/07 15:02:45;;;;;;;17.87;2.70;;;6.30;80.40;;;;;;5053482;28;20174;-81
2021/04/07 15:05:11;;;;;;;6.10;1.50;;;6.30;79.30;;;;;;5053516;28;20173;-81
2021/04/07 15:07:37;;;;;;;7.00;1.70;;;6.20;78.40;;;;;;5053137;28;20204;-81
2021/04/07 15:10:05;;;;;;;11.73;1.80;;;5.60;79.30;;;;;;5035567;28;20557;-81
2021/04/07 15:12:30;;;;;;;6.50;1.90;;;5.60;81.30;;;;;;5053561;28;20557;-81
2021/04/07 15:14:56;;;;;;;8.70;2.27;;;5.90;82.70;;;;;;5053290;28;20176;-81
2021/04/07 15:17:22;;;;;;;5.63;2.20;;;6.30;81.70;;;;;;5053217;28;20188;-81
2021/04/07 15:19:47;;;;;;;3.90;1.50;;;6.50;80.40;;;;;;5053314;28;20644;-81
2021/04/07 15:22:16;;;;;;;6.10;1.80;;;6.70;79.20;;;;;;5035323;28;20181;-81
2021/04/07 15:24:42;;;;;;;8.23;1.70;;;7.10;79.70;;;;;;5053727;28;20176;-82
2021/04/07 15:27:14;;;;;;;8.73;2.17;;;7.30;78.40;;;;;;5053045;28;20185;-82
2021/04/07 15:29:40;;;;;;;9.97;2.20;;;7.30;77.10;;;;;;5053190;28;20159;-82
2021/04/07 15:32:08;;;;;;;12.80;2.07;;;7.00;76.00;;;;;;5053326;28;20198;-82
2021/04/07 15:34:34;;;;;;;6.90;2.00;;;6.80;76.00;;;;;;5053110;28;20539;-81
2021/04/07 15:37:00;;;;;;;5.40;1.67;;;6.60;75.50;;;;;;5053047;28;20188;-81
2021/04/07 15:39:27;;;;;;;6.50;1.53;;;6.40;74.10;;;;;;5053039;28;20181;-81
2021/04/07 15:41:53;;;;;;;8.07;1.90;;;6.60;75.40;;;;;;5052996;28;20174;-81
2021/04/07 15:44:18;;;;;;;4.73;1.63;;;6.40;73.80;;;;;;5053207;28;20193;-81